Newtown, PA (18940)

4:27 AM EDT on August 01, 2015 (GMT -0400)
Jase Drive | | Change Station
CLOSE
Current Station
Personal Weather Station
Location: Newtown, PA
Elevation: 275 ft
Nearby Weather Stations

Elev 275 ft 40.22 °N, 74.91 °W | Updated 6 seconds ago

Clear
Clear
68.0 °F
Feels Like 68.0 °F
N
0.0
Wind Variable Wind from West
Gusts 0.0 mph

Today
High -- | Low -- °F
--% Chance of Precip.
Yesterday
High -- | Low -- °F
Precip. -- in
5:57 AM 8:14 PM
Full, 99% visible
Pressure 29.80 in
Visibility 10.0 miles
Clouds Few 10000 ft
Dew Point 64 °F
Humidity 86%
Rainfall 0.00 in
Snow Depth Not available.
UV 0 out of 12
Pollen 6.50 out of 12
Air Quality Not available.
Flu Activity Not available.
METAR KTTN 010753Z AUTO 23003KT 10SM FEW100 22/16 A2982 RMK AO2 SLP089 T02170161

More Conditions Fewer Conditions

Pressure 29.80 in
Visibility 10.0 miles
Clouds Few 10000 ft
Dew Point 64 °F
Humidity 86%
Rainfall 0.00 in
Snow Depth Not available.
UV 0 out of 12
Pollen 6.50 out of 12
Air Quality Not available.
Flu Activity Not available.
METAR KTTN 010753Z AUTO 23003KT 10SM FEW100 22/16 A2982 RMK AO2 SLP089 T02170161

More Conditions Fewer Conditions

10-Day Weather Forecast

×

Almanac

Astronomy

Aug. 01, 2015 Rise Set
Actual Time
Civil Twilight
Nautical Twilight
Astronomical Twilight
Moon
Length of Visible Light
Length of Day
Tomorrow will be .
, % of the Moon is Illuminated

Today's Extremes

State Highs State Lows

Community

WunderPhotos

Upload Photos

1,842,905 photos uploaded!

WunderBlogs® & News

Nearby

Air Quality

  Air Quality AQ Index Pollutant
Not available.

Snow Depth

Station Depth Elevation

Earthquake Activity

City Distance Mag. Time & Date
Minimum magnitude displayed is 2.5.

Coastal Water Temperatures

Place Temperature

Stations

Nearby Weather Stations

Station Location Temp. Windchill Dew Point Humidity Wind Precip. Elev Updated Type